createdAt,value
2023-05-19T00:00:04.831Z,26.47
2023-05-19T00:02:39.432Z,27.23
2023-05-19T00:05:07.069Z,25.10
2023-05-19T00:07:36.252Z,28.93
2023-05-19T00:10:03.464Z,29.37
2023-05-19T00:12:30.647Z,26.70
2023-05-19T00:14:57.570Z,27.70
2023-05-19T00:17:24.652Z,27.37
2023-05-19T00:19:52.533Z,27.73
2023-05-19T00:22:19.352Z,25.63
2023-05-19T00:24:46.178Z,27.33
2023-05-19T00:27:12.972Z,26.90
2023-05-19T00:29:39.791Z,28.67
2023-05-19T00:32:06.814Z,29.30
2023-05-19T00:34:33.687Z,29.00
2023-05-19T00:37:00.469Z,27.27
2023-05-19T00:39:27.248Z,27.77
2023-05-19T00:41:54.050Z,27.20
2023-05-19T00:44:21.138Z,26.63
2023-05-19T00:46:48.008Z,27.20
2023-05-19T00:49:15.161Z,28.53
2023-05-19T00:51:42.271Z,29.10
2023-05-19T00:54:09.611Z,27.70
2023-05-19T00:56:36.568Z,29.40
2023-05-19T00:59:03.557Z,32.67
2023-05-19T01:01:32.274Z,30.20
2023-05-19T01:04:00.083Z,33.13
2023-05-19T01:06:27.782Z,31.67
2023-05-19T01:08:54.595Z,31.47
2023-05-19T01:11:21.654Z,30.77
2023-05-19T01:13:48.932Z,32.13
2023-05-19T01:16:36.555Z,31.87
2023-05-19T01:19:48.286Z,27.53
2023-05-19T01:22:22.794Z,30.30
2023-05-19T01:25:27.251Z,31.00
2023-05-19T01:28:12.157Z,31.83
2023-05-19T01:30:44.360Z,30.37
2023-05-19T01:33:16.059Z,31.20
2023-05-19T01:35:43.756Z,31.07
2023-05-19T01:38:12.144Z,34.33
2023-05-19T01:40:41.926Z,33.43
2023-05-19T01:43:11.767Z,32.80
2023-05-19T01:45:39.681Z,34.03
2023-05-19T01:48:09.914Z,33.10
2023-05-19T01:50:40.102Z,30.73
2023-05-19T01:53:07.057Z,32.40
2023-05-19T01:55:48.191Z,32.13
2023-05-19T01:58:15.141Z,32.33
2023-05-19T02:01:01.310Z,36.33
2023-05-19T02:03:53.232Z,33.27
2023-05-19T02:06:39.439Z,32.80
2023-05-19T02:09:08.989Z,33.77
2023-05-19T02:11:46.210Z,34.20
2023-05-19T02:14:14.913Z,34.87
2023-05-19T02:16:45.698Z,32.37
2023-05-19T02:19:30.690Z,31.43
2023-05-19T02:21:57.613Z,33.50
2023-05-19T02:24:25.549Z,35.07
2023-05-19T02:26:53.836Z,33.97
2023-05-19T02:29:21.122Z,35.90
2023-05-19T02:31:48.307Z,32.93
2023-05-19T02:34:15.378Z,32.87
2023-05-19T02:36:43.174Z,36.33
2023-05-19T02:39:11.108Z,32.33
2023-05-19T02:41:40.945Z,35.30
2023-05-19T02:44:08.890Z,35.13
2023-05-19T02:46:36.641Z,34.67
2023-05-19T02:49:03.902Z,35.47
2023-05-19T02:51:30.708Z,34.43
2023-05-19T02:53:57.787Z,34.87
2023-05-19T02:56:24.695Z,36.93
2023-05-19T02:58:52.697Z,35.87
2023-05-19T03:01:22.086Z,33.13
2023-05-19T03:03:49.112Z,35.67
2023-05-19T03:06:18.020Z,34.43
2023-05-19T03:08:45.140Z,35.97
2023-05-19T03:11:11.948Z,35.53
2023-05-19T03:13:38.903Z,36.30
2023-05-19T03:16:07.995Z,34.77
2023-05-19T03:18:35.260Z,37.93
2023-05-19T03:21:02.150Z,35.47
2023-05-19T03:23:29.101Z,34.80
2023-05-19T03:25:56.324Z,38.97
2023-05-19T03:28:23.578Z,34.27
2023-05-19T03:30:50.827Z,32.57
2023-05-19T03:33:20.853Z,34.27
2023-05-19T03:35:47.927Z,34.93
2023-05-19T03:38:15.796Z,32.93
2023-05-19T03:40:50.101Z,31.97
2023-05-19T03:43:17.174Z,32.70
2023-05-19T03:45:51.477Z,32.80
2023-05-19T03:48:50.738Z,32.80
2023-05-19T03:51:20.411Z,32.87
2023-05-19T03:53:50.165Z,35.03
2023-05-19T03:56:18.188Z,35.23
2023-05-19T03:58:46.959Z,34.20
2023-05-19T04:01:14.991Z,32.93
2023-05-19T04:03:41.936Z,33.57
2023-05-19T04:06:08.960Z,35.13
2023-05-19T04:08:36.180Z,32.23
2023-05-19T04:11:03.150Z,32.13
2023-05-19T04:13:30.766Z,32.63
2023-05-19T04:15:57.838Z,33.30
2023-05-19T04:18:28.809Z,33.60
2023-05-19T04:20:56.017Z,34.33
2023-05-19T04:23:22.822Z,34.93
2023-05-19T04:25:50.105Z,34.93
2023-05-19T04:28:18.006Z,33.33
2023-05-19T04:30:46.657Z,33.73
2023-05-19T04:33:13.787Z,33.43
2023-05-19T04:35:40.933Z,32.70
2023-05-19T04:38:10.066Z,33.80
2023-05-19T04:40:37.581Z,36.63
2023-05-19T04:43:04.422Z,33.70
2023-05-19T04:45:33.085Z,34.40
2023-05-19T04:48:02.065Z,32.97
2023-05-19T04:50:30.995Z,33.37
2023-05-19T04:52:59.214Z,32.70
2023-05-19T04:55:27.041Z,38.27
2023-05-19T04:57:54.033Z,33.10
2023-05-19T05:00:22.133Z,36.70
2023-05-19T05:02:57.537Z,36.27
2023-05-19T05:05:25.777Z,38.47
2023-05-19T05:07:54.145Z,34.23
2023-05-19T05:10:22.427Z,35.00
2023-05-19T05:12:49.808Z,35.43
2023-05-19T05:15:17.212Z,35.93
2023-05-19T05:17:46.587Z,36.43
2023-05-19T05:20:14.178Z,35.03
2023-05-19T05:22:42.125Z,39.53
2023-05-19T05:25:10.715Z,40.93
2023-05-19T05:27:38.341Z,38.23
2023-05-19T05:30:07.639Z,37.77
2023-05-19T05:32:34.606Z,36.00
2023-05-19T05:35:04.283Z,39.17
2023-05-19T05:37:31.668Z,38.83
2023-05-19T05:39:58.720Z,37.97
2023-05-19T05:42:27.078Z,41.60
2023-05-19T05:44:55.905Z,40.37
2023-05-19T05:47:23.356Z,43.03
2023-05-19T05:49:52.178Z,42.00
2023-05-19T05:52:22.670Z,41.67
2023-05-19T05:54:49.788Z,42.40
2023-05-19T05:57:19.231Z,42.40
2023-05-19T05:59:47.186Z,38.50
2023-05-19T06:02:14.656Z,35.30
2023-05-19T06:04:41.796Z,40.23
2023-05-19T06:07:08.914Z,39.40
2023-05-19T06:09:38.166Z,38.97
2023-05-19T06:12:07.056Z,38.30
2023-05-19T06:14:39.712Z,37.40
2023-05-19T06:17:21.015Z,39.77
2023-05-19T06:19:47.966Z,39.37
2023-05-19T06:22:15.671Z,42.03
2023-05-19T06:24:43.870Z,42.43
2023-05-19T06:27:11.005Z,42.83
2023-05-19T06:29:37.876Z,36.27
2023-05-19T06:32:06.988Z,37.23
2023-05-19T06:34:34.863Z,39.37
2023-05-19T06:37:02.430Z,37.03
2023-05-19T06:39:30.651Z,36.40
2023-05-19T06:41:57.522Z,36.13
2023-05-19T06:44:47.208Z,36.87
2023-05-19T06:47:16.478Z,31.63
2023-05-19T06:49:45.767Z,31.77
2023-05-19T06:52:13.891Z,36.20
2023-05-19T06:54:40.849Z,33.70
2023-05-19T06:57:09.931Z,34.07
2023-05-19T06:59:37.611Z,36.33
2023-05-19T07:02:05.587Z,33.90
2023-05-19T07:04:33.204Z,32.10
2023-05-19T07:07:01.472Z,32.10
2023-05-19T07:09:29.199Z,32.67
2023-05-19T07:11:57.163Z,30.33
2023-05-19T07:14:24.128Z,30.77
2023-05-19T07:16:51.730Z,30.13
2023-05-19T07:19:21.619Z,33.60
2023-05-19T07:21:48.541Z,30.87
2023-05-19T07:24:15.806Z,31.13
2023-05-19T07:26:42.877Z,33.07
2023-05-19T07:29:09.696Z,28.33
2023-05-19T07:31:36.645Z,26.63
2023-05-19T07:34:03.814Z,29.13
2023-05-19T07:36:31.309Z,29.40
2023-05-19T07:38:58.231Z,28.63
2023-05-19T07:41:25.085Z,33.83
2023-05-19T07:43:51.954Z,31.53
2023-05-19T07:46:19.061Z,27.53
2023-05-19T07:48:46.038Z,28.87
2023-05-19T07:51:13.390Z,27.60
2023-05-19T07:53:40.294Z,26.73
2023-05-19T07:56:07.125Z,28.27
2023-05-19T07:58:33.958Z,27.47
2023-05-19T08:01:01.121Z,30.00
2023-05-19T08:03:28.116Z,28.40
2023-05-19T08:05:55.440Z,25.47
2023-05-19T08:08:22.296Z,29.20
2023-05-19T08:10:49.165Z,27.00
2023-05-19T08:13:16.086Z,25.90
2023-05-19T08:15:43.088Z,25.40
2023-05-19T08:18:10.082Z,24.43
2023-05-19T08:20:37.575Z,25.13
2023-05-19T08:23:04.662Z,28.97
2023-05-19T08:25:31.512Z,25.07
2023-05-19T08:27:58.346Z,26.00
2023-05-19T08:30:25.259Z,24.47
2023-05-19T08:32:52.187Z,23.37
2023-05-19T08:35:19.117Z,25.67
2023-05-19T08:37:45.934Z,22.73
2023-05-19T08:40:18.169Z,24.23
2023-05-19T08:42:46.257Z,22.70
2023-05-19T08:45:13.629Z,23.73
2023-05-19T08:47:42.360Z,22.77
2023-05-19T08:50:13.195Z,22.57
2023-05-19T08:52:52.500Z,23.70
2023-05-19T08:55:45.973Z,21.30
2023-05-19T08:58:13.226Z,20.40
2023-05-19T09:00:40.401Z,21.70
2023-05-19T09:03:18.184Z,20.70
2023-05-19T09:05:50.747Z,19.97
2023-05-19T09:08:18.394Z,19.60
2023-05-19T09:10:45.341Z,21.60
2023-05-19T09:13:12.297Z,21.20
2023-05-19T09:15:41.218Z,21.83
2023-05-19T09:18:10.494Z,20.93
2023-05-19T09:20:42.789Z,21.00
2023-05-19T09:23:14.857Z,21.80
2023-05-19T09:25:47.110Z,21.33
2023-05-19T09:28:13.975Z,20.43
2023-05-19T09:30:40.877Z,22.47
2023-05-19T09:33:10.027Z,21.80
2023-05-19T09:35:37.256Z,20.60
2023-05-19T09:38:04.163Z,21.03
2023-05-19T09:40:32.697Z,21.57
2023-05-19T09:42:59.504Z,21.83
2023-05-19T09:45:28.767Z,22.67
2023-05-19T09:47:55.591Z,21.03
2023-05-19T09:50:22.702Z,20.93
2023-05-19T09:52:50.316Z,22.03
2023-05-19T09:55:18.579Z,21.87
2023-05-19T09:57:46.204Z,21.33
2023-05-19T10:00:14.493Z,21.67
2023-05-19T10:02:43.833Z,20.93
2023-05-19T10:05:17.549Z,20.57
2023-05-19T10:07:45.829Z,20.93
2023-05-19T10:10:14.083Z,20.50
2023-05-19T10:12:41.923Z,20.37
2023-05-19T10:15:13.338Z,20.33
2023-05-19T10:17:41.679Z,21.63
2023-05-19T10:20:14.070Z,21.27
2023-05-19T10:22:42.113Z,20.87
2023-05-19T10:25:10.676Z,20.90
2023-05-19T10:27:44.080Z,21.63
2023-05-19T10:30:20.578Z,20.63
2023-05-19T10:32:51.915Z,20.43
2023-05-19T10:35:27.847Z,21.10
2023-05-19T10:38:03.233Z,20.77
2023-05-19T10:40:50.487Z,19.13
2023-05-19T10:43:36.244Z,19.13
2023-05-19T10:46:05.937Z,19.30
2023-05-19T10:48:38.821Z,19.47
2023-05-19T10:51:07.163Z,19.23
2023-05-19T10:53:35.096Z,18.77
2023-05-19T10:56:03.946Z,19.50
2023-05-19T10:58:45.712Z,17.93
2023-05-19T11:01:20.026Z,17.70
2023-05-19T11:03:49.739Z,17.00
2023-05-19T11:06:38.752Z,17.57
2023-05-19T11:09:15.447Z,18.90
2023-05-19T11:11:52.884Z,17.53
2023-05-19T11:14:26.648Z,17.17
2023-05-19T11:16:57.709Z,16.97
2023-05-19T11:19:36.986Z,16.77
2023-05-19T11:22:14.149Z,16.10
2023-05-19T11:24:45.784Z,16.67
2023-05-19T11:27:32.880Z,17.67
2023-05-19T11:30:02.132Z,16.47
2023-05-19T11:32:30.927Z,17.33
2023-05-19T11:34:58.382Z,17.10
2023-05-19T11:37:26.089Z,16.10
2023-05-19T11:39:53.316Z,16.30
2023-05-19T11:42:20.637Z,16.33
2023-05-19T11:44:47.641Z,16.40
2023-05-19T11:47:15.735Z,16.13
2023-05-19T11:49:49.102Z,15.90
2023-05-19T11:52:16.155Z,15.77
2023-05-19T11:54:43.284Z,16.47
2023-05-19T11:57:14.108Z,15.63
2023-05-19T11:59:45.387Z,16.80
2023-05-19T12:02:21.423Z,15.60
2023-05-19T12:04:51.696Z,16.73
2023-05-19T12:07:20.370Z,15.83
2023-05-19T12:09:47.772Z,17.13
2023-05-19T12:12:19.250Z,17.10
2023-05-19T12:14:52.892Z,17.73
2023-05-19T12:17:21.196Z,16.43
2023-05-19T12:19:49.252Z,16.27
2023-05-19T12:22:17.823Z,17.10
2023-05-19T12:24:46.098Z,16.50
2023-05-19T12:27:28.663Z,16.93
2023-05-19T12:29:59.305Z,17.00
2023-05-19T12:32:29.381Z,17.40
2023-05-19T12:34:56.650Z,16.57
2023-05-19T12:37:27.601Z,16.87
2023-05-19T12:39:56.213Z,16.80
2023-05-19T12:42:24.059Z,16.70
2023-05-19T12:44:52.548Z,16.60
2023-05-19T12:47:21.058Z,17.10
2023-05-19T12:50:04.888Z,16.63
2023-05-19T12:52:35.367Z,17.17
2023-05-19T12:55:07.538Z,16.83
2023-05-19T12:57:36.146Z,16.80
2023-05-19T13:00:17.825Z,17.00
2023-05-19T13:03:05.698Z,16.70
2023-05-19T13:05:38.645Z,17.13
2023-05-19T13:08:11.027Z,17.40
2023-05-19T13:10:39.658Z,16.40
2023-05-19T13:13:08.046Z,18.57
2023-05-19T13:15:37.607Z,17.03
2023-05-19T13:18:08.795Z,16.60
2023-05-19T13:20:39.712Z,17.30
2023-05-19T13:23:06.747Z,17.60
2023-05-19T13:25:34.769Z,18.30
2023-05-19T13:28:05.822Z,18.37
2023-05-19T13:30:34.532Z,17.13
2023-05-19T13:33:01.907Z,17.50
2023-05-19T13:35:28.877Z,19.57
2023-05-19T13:37:55.931Z,18.13
2023-05-19T13:40:23.942Z,18.20
2023-05-19T13:42:50.938Z,19.63
2023-05-19T13:45:18.393Z,17.27
2023-05-19T13:47:45.329Z,16.80
2023-05-19T13:50:12.468Z,16.77
2023-05-19T13:52:39.477Z,17.97
2023-05-19T13:55:07.587Z,17.43
2023-05-19T13:57:35.273Z,17.23
2023-05-19T14:00:03.651Z,17.90
2023-05-19T14:02:40.706Z,18.63
2023-05-19T14:05:08.646Z,17.80
2023-05-19T14:07:35.930Z,18.23
2023-05-19T14:10:05.372Z,19.13
2023-05-19T14:12:43.156Z,18.43
2023-05-19T14:15:20.162Z,17.07
2023-05-19T14:17:48.979Z,16.83
2023-05-19T14:20:16.041Z,17.60
2023-05-19T14:22:42.892Z,17.60
2023-05-19T14:25:09.898Z,17.43
2023-05-19T14:27:36.890Z,17.50
2023-05-19T14:30:04.004Z,17.30
2023-05-19T14:32:30.910Z,19.10
2023-05-19T14:34:57.763Z,18.13
2023-05-19T14:37:27.497Z,18.53
2023-05-19T14:39:54.759Z,19.43
2023-05-19T14:42:21.687Z,17.97
2023-05-19T14:44:48.483Z,18.87
2023-05-19T14:47:15.577Z,17.93
2023-05-19T14:49:42.595Z,18.97
2023-05-19T14:52:09.474Z,18.70
2023-05-19T14:54:36.532Z,19.23
2023-05-19T14:57:04.505Z,18.23
2023-05-19T14:59:31.466Z,18.87
2023-05-19T15:01:58.304Z,18.53
2023-05-19T15:04:25.242Z,19.13
2023-05-19T15:07:05.693Z,18.60
2023-05-19T15:09:36.428Z,18.53
2023-05-19T15:12:03.671Z,18.80
2023-05-19T15:14:30.975Z,19.33
2023-05-19T15:16:58.562Z,19.10
2023-05-19T15:19:26.127Z,19.47
2023-05-19T15:21:53.114Z,18.57
2023-05-19T15:24:20.017Z,18.77
2023-05-19T15:26:47.296Z,18.53
2023-05-19T15:29:14.347Z,19.30
2023-05-19T15:31:41.476Z,18.37
2023-05-19T15:34:08.610Z,19.20
2023-05-19T15:36:35.584Z,19.10
2023-05-19T15:39:03.728Z,19.07
2023-05-19T15:41:30.675Z,19.03
2023-05-19T15:44:00.025Z,19.17
2023-05-19T15:46:27.029Z,19.13
2023-05-19T15:48:53.880Z,19.13
2023-05-19T15:51:20.967Z,18.77
2023-05-19T15:53:48.019Z,18.50
2023-05-19T15:56:15.384Z,19.20
2023-05-19T15:58:42.442Z,19.83
2023-05-19T16:01:09.598Z,17.93
2023-05-19T16:03:36.644Z,18.50
2023-05-19T16:06:03.847Z,17.93
2023-05-19T16:08:31.407Z,19.07
2023-05-19T16:10:58.279Z,18.43
2023-05-19T16:13:25.258Z,18.60
2023-05-19T16:15:52.663Z,18.10
2023-05-19T16:18:19.705Z,18.90
2023-05-19T16:20:46.513Z,18.00
2023-05-19T16:23:13.294Z,19.20
2023-05-19T16:25:40.152Z,18.30
2023-05-19T16:28:07.170Z,18.87
2023-05-19T16:30:34.441Z,18.40
2023-05-19T16:33:01.558Z,18.93
2023-05-19T16:35:29.501Z,19.13
2023-05-19T16:37:56.521Z,19.00
2023-05-19T16:40:23.353Z,18.07
2023-05-19T16:42:52.316Z,18.10
2023-05-19T16:45:19.391Z,19.47
2023-05-19T16:47:46.462Z,19.10
2023-05-19T16:50:13.403Z,18.67
2023-05-19T16:52:40.315Z,18.83
2023-05-19T16:55:07.592Z,18.50
2023-05-19T16:57:34.400Z,18.70
2023-05-19T17:00:01.255Z,18.37
2023-05-19T17:02:28.259Z,18.83
2023-05-19T17:04:55.611Z,19.53
2023-05-19T17:07:22.480Z,19.17
2023-05-19T17:09:49.418Z,19.33
2023-05-19T17:12:16.293Z,19.60
2023-05-19T17:14:43.571Z,18.40
2023-05-19T17:17:10.767Z,18.57
2023-05-19T17:19:37.693Z,19.53
2023-05-19T17:22:04.679Z,18.57
2023-05-19T17:24:33.532Z,18.20
2023-05-19T17:27:00.992Z,19.77
2023-05-19T17:29:27.998Z,20.63
2023-05-19T17:31:55.426Z,18.33
2023-05-19T17:34:22.541Z,20.97
2023-05-19T17:36:49.717Z,19.37
2023-05-19T17:39:16.696Z,18.93
2023-05-19T17:41:43.762Z,20.63
2023-05-19T17:44:11.163Z,18.90
2023-05-19T17:46:39.325Z,19.47
2023-05-19T17:49:06.628Z,20.40
2023-05-19T17:51:33.842Z,21.30
2023-05-19T17:54:01.092Z,21.20
2023-05-19T17:56:31.753Z,21.77
2023-05-19T17:58:58.868Z,21.60
2023-05-19T18:01:26.230Z,20.47
2023-05-19T18:03:53.629Z,19.33
2023-05-19T18:06:20.914Z,19.20
2023-05-19T18:08:50.553Z,21.40
2023-05-19T18:11:18.306Z,19.43
2023-05-19T18:13:45.639Z,21.23
2023-05-19T18:16:12.726Z,19.03
2023-05-19T18:18:43.349Z,19.20
2023-05-19T18:21:17.678Z,20.30
2023-05-19T18:23:45.668Z,20.80
2023-05-19T18:26:13.238Z,20.07
2023-05-19T18:28:41.478Z,20.80
2023-05-19T18:31:17.421Z,20.87
2023-05-19T18:33:45.357Z,20.60
2023-05-19T18:36:13.440Z,20.77
2023-05-19T18:38:41.321Z,22.30
2023-05-19T18:41:09.267Z,21.27
2023-05-19T18:43:36.167Z,22.07
2023-05-19T18:46:03.020Z,21.87
2023-05-19T18:48:30.132Z,23.27
2023-05-19T18:50:57.194Z,22.53
2023-05-19T18:53:24.087Z,23.57
2023-05-19T18:55:51.117Z,21.33
2023-05-19T18:58:18.810Z,22.57
2023-05-19T19:00:45.793Z,21.87
2023-05-19T19:03:12.890Z,23.83
2023-05-19T19:05:39.998Z,23.73
2023-05-19T19:08:06.877Z,23.53
2023-05-19T19:10:37.268Z,23.73
2023-05-19T19:13:04.220Z,24.87
2023-05-19T19:15:31.685Z,25.10
2023-05-19T19:17:58.559Z,24.93
2023-05-19T19:20:25.576Z,25.90
2023-05-19T19:22:53.439Z,23.20
2023-05-19T19:25:23.118Z,20.90
2023-05-19T19:27:50.508Z,22.27
2023-05-19T19:30:17.414Z,24.60
2023-05-19T19:32:44.336Z,21.77
2023-05-19T19:35:11.495Z,23.00
2023-05-19T19:37:38.361Z,24.00
2023-05-19T19:40:06.149Z,25.03
2023-05-19T19:42:33.247Z,23.80
2023-05-19T19:45:00.421Z,26.13
2023-05-19T19:47:27.490Z,21.93
2023-05-19T19:49:54.439Z,24.77
2023-05-19T19:52:21.300Z,26.50
2023-05-19T19:54:48.226Z,24.07
2023-05-19T19:57:17.250Z,27.03
2023-05-19T19:59:44.249Z,29.20
2023-05-19T20:02:11.475Z,25.47
2023-05-19T20:04:38.550Z,24.77
2023-05-19T20:07:05.403Z,22.27
2023-05-19T20:09:32.270Z,27.87
2023-05-19T20:11:59.097Z,23.93
2023-05-19T20:14:26.030Z,29.23
2023-05-19T20:16:52.954Z,25.03
2023-05-19T20:19:19.877Z,29.40
2023-05-19T20:21:46.755Z,30.73
2023-05-19T20:24:13.642Z,27.53
2023-05-19T20:26:40.535Z,26.90
2023-05-19T20:29:07.349Z,27.10
2023-05-19T20:31:34.174Z,25.70
2023-05-19T20:34:01.867Z,26.87
2023-05-19T20:36:28.994Z,27.10
2023-05-19T20:38:55.853Z,26.50
2023-05-19T20:41:23.574Z,28.07
2023-05-19T20:43:50.536Z,28.97
2023-05-19T20:46:17.484Z,31.03
2023-05-19T20:48:44.360Z,35.63
2023-05-19T20:51:11.168Z,35.67
2023-05-19T20:53:38.172Z,35.03
2023-05-19T20:56:06.765Z,35.93
2023-05-19T20:58:33.658Z,36.27
2023-05-19T21:01:00.613Z,38.10
2023-05-19T21:03:28.572Z,36.83
2023-05-19T21:05:56.394Z,37.50
2023-05-19T21:08:24.132Z,36.40
2023-05-19T21:10:51.228Z,38.27
2023-05-19T21:13:18.665Z,35.93
2023-05-19T21:15:45.538Z,35.80
2023-05-19T21:18:12.921Z,34.63
2023-05-19T21:20:40.252Z,36.20
2023-05-19T21:23:07.183Z,35.23
2023-05-19T21:25:34.085Z,34.10
2023-05-19T21:28:01.076Z,34.47
2023-05-19T21:30:27.965Z,33.87
2023-05-19T21:32:54.988Z,33.30
2023-05-19T21:35:21.901Z,34.77
2023-05-19T21:37:48.744Z,34.20
2023-05-19T21:40:16.103Z,31.57
2023-05-19T21:42:42.906Z,33.53
2023-05-19T21:45:10.244Z,32.17
2023-05-19T21:47:37.069Z,31.27
2023-05-19T21:50:04.111Z,29.93
2023-05-19T21:52:31.352Z,29.63
2023-05-19T21:54:58.312Z,29.93
2023-05-19T21:57:25.270Z,29.87
2023-05-19T21:59:52.111Z,30.70
2023-05-19T22:02:18.910Z,30.70
2023-05-19T22:04:45.960Z,29.27
2023-05-19T22:07:12.836Z,29.67
2023-05-19T22:09:39.678Z,31.43
2023-05-19T22:12:07.106Z,30.20
2023-05-19T22:14:34.002Z,29.77
2023-05-19T22:17:00.820Z,31.90
2023-05-19T22:19:27.893Z,29.90
2023-05-19T22:22:01.879Z,30.97
2023-05-19T22:24:33.091Z,28.87
2023-05-19T22:27:00.111Z,30.17
2023-05-19T22:29:26.923Z,29.63
2023-05-19T22:31:53.896Z,30.27
2023-05-19T22:34:20.898Z,29.40
2023-05-19T22:36:47.764Z,28.20
2023-05-19T22:39:14.625Z,27.80
2023-05-19T22:41:41.966Z,27.70
2023-05-19T22:44:10.382Z,27.30
2023-05-19T22:46:37.400Z,28.50
2023-05-19T22:49:04.230Z,27.23
2023-05-19T22:51:31.379Z,25.97
2023-05-19T22:53:58.253Z,28.07
2023-05-19T22:56:25.053Z,26.80
2023-05-19T22:58:51.960Z,27.83
2023-05-19T23:01:18.981Z,28.77
2023-05-19T23:03:45.815Z,27.17
2023-05-19T23:06:12.660Z,27.77
2023-05-19T23:08:39.599Z,27.70
2023-05-19T23:11:06.844Z,27.27
2023-05-19T23:13:33.930Z,29.40
2023-05-19T23:16:00.911Z,28.33
2023-05-19T23:18:27.707Z,28.77
2023-05-19T23:20:54.475Z,26.30
2023-05-19T23:23:21.404Z,29.07
2023-05-19T23:25:48.273Z,27.77
2023-05-19T23:28:15.246Z,27.47
2023-05-19T23:30:42.066Z,29.73
2023-05-19T23:33:08.846Z,29.07
2023-05-19T23:35:36.002Z,28.20
2023-05-19T23:38:03.004Z,26.93
2023-05-19T23:40:29.792Z,27.40
2023-05-19T23:42:56.635Z,28.03
2023-05-19T23:45:23.457Z,26.67
2023-05-19T23:47:50.321Z,27.10
2023-05-19T23:50:17.192Z,28.10
2023-05-19T23:52:44.045Z,28.33
2023-05-19T23:55:12.979Z,27.87
2023-05-19T23:57:39.804Z,27.07
